sensor_id;sensor_type;location;lat;lon;timestamp;temperature;humidity
26583;DHT22;14230;45.382;10.998;2023-04-01T00:01:09;9.80;99.90
26583;DHT22;14230;45.382;10.998;2023-04-01T00:03:39;9.80;99.90
26583;DHT22;14230;45.382;10.998;2023-04-01T00:06:07;9.80;99.90
26583;DHT22;14230;45.382;10.998;2023-04-01T00:08:35;9.70;99.90
26583;DHT22;14230;45.382;10.998;2023-04-01T00:11:03;9.70;99.90
26583;DHT22;14230;45.382;10.998;2023-04-01T00:13:31;9.70;99.90
26583;DHT22;14230;45.382;10.998;2023-04-01T00:15:58;9.60;99.90
26583;DHT22;14230;45.382;10.998;2023-04-01T00:18:26;9.70;99.90
26583;DHT22;14230;45.382;10.998;2023-04-01T00:20:54;9.70;99.90
26583;DHT22;14230;45.382;10.998;2023-04-01T00:23:22;9.60;99.90
26583;DHT22;14230;45.382;10.998;2023-04-01T00:25:49;9.60;99.90
26583;DHT22;14230;45.382;10.998;2023-04-01T00:28:18;9.60;99.90
26583;DHT22;14230;45.382;10.998;2023-04-01T00:30:47;9.60;99.90
26583;DHT22;14230;45.382;10.998;2023-04-01T00:33:15;9.60;99.90
26583;DHT22;14230;45.382;10.998;2023-04-01T00:35:44;9.60;99.90
26583;DHT22;14230;45.382;10.998;2023-04-01T00:38:12;9.60;99.90
26583;DHT22;14230;45.382;10.998;2023-04-01T00:40:42;9.50;99.90
26583;DHT22;14230;45.382;10.998;2023-04-01T00:43:13;9.40;99.90
26583;DHT22;14230;45.382;10.998;2023-04-01T00:45:43;9.40;99.90
26583;DHT22;14230;45.382;10.998;2023-04-01T00:48:14;9.40;99.90
26583;DHT22;14230;45.382;10.998;2023-04-01T00:50:46;9.40;99.90
26583;DHT22;14230;45.382;10.998;2023-04-01T00:53:19;9.30;99.90
26583;DHT22;14230;45.382;10.998;2023-04-01T00:55:56;9.30;99.90
26583;DHT22;14230;45.382;10.998;2023-04-01T00:58:27;9.30;99.90
26583;DHT22;14230;45.382;10.998;2023-04-01T01:00:56;9.30;99.90
26583;DHT22;14230;45.382;10.998;2023-04-01T01:03:26;9.30;99.90
26583;DHT22;14230;45.382;10.998;2023-04-01T01:06:31;9.20;99.90
26583;DHT22;14230;45.382;10.998;2023-04-01T01:09:25;9.20;99.90
26583;DHT22;14230;45.382;10.998;2023-04-01T01:12:17;9.20;99.90
26583;DHT22;14230;45.382;10.998;2023-04-01T01:15:03;9.10;99.90
26583;DHT22;14230;45.382;10.998;2023-04-01T01:17:57;9.10;99.90
26583;DHT22;14230;45.382;10.998;2023-04-01T01:28:52;8.90;99.90
26583;DHT22;14230;45.382;10.998;2023-04-01T01:31:37;8.90;99.90
26583;DHT22;14230;45.382;10.998;2023-04-01T01:34:19;8.90;99.90
26583;DHT22;14230;45.382;10.998;2023-04-01T01:36:53;8.80;99.90
26583;DHT22;14230;45.382;10.998;2023-04-01T01:39:27;8.80;99.90
26583;DHT22;14230;45.382;10.998;2023-04-01T01:41:57;8.80;99.90
26583;DHT22;14230;45.382;10.998;2023-04-01T01:44:30;8.90;99.90
26583;DHT22;14230;45.382;10.998;2023-04-01T01:47:00;8.90;99.90
26583;DHT22;14230;45.382;10.998;2023-04-01T01:49:28;8.80;99.90
26583;DHT22;14230;45.382;10.998;2023-04-01T01:51:57;8.70;99.90
26583;DHT22;14230;45.382;10.998;2023-04-01T01:54:25;8.70;99.90
26583;DHT22;14230;45.382;10.998;2023-04-01T01:57:06;8.70;99.90
26583;DHT22;14230;45.382;10.998;2023-04-01T01:59:38;8.70;99.90
26583;DHT22;14230;45.382;10.998;2023-04-01T02:02:08;8.70;99.90
26583;DHT22;14230;45.382;10.998;2023-04-01T02:04:42;8.60;99.90
26583;DHT22;14230;45.382;10.998;2023-04-01T02:07:19;8.70;99.90
26583;DHT22;14230;45.382;10.998;2023-04-01T02:09:49;8.80;99.90
26583;DHT22;14230;45.382;10.998;2023-04-01T02:12:19;8.80;99.90
26583;DHT22;14230;45.382;10.998;2023-04-01T02:14:58;8.80;99.90
26583;DHT22;14230;45.382;10.998;2023-04-01T02:17:29;8.80;99.90
26583;DHT22;14230;45.382;10.998;2023-04-01T02:20:09;8.80;99.90
26583;DHT22;14230;45.382;10.998;2023-04-01T02:22:41;8.70;99.90
26583;DHT22;14230;45.382;10.998;2023-04-01T02:25:16;8.70;99.90
26583;DHT22;14230;45.382;10.998;2023-04-01T02:27:46;8.70;99.90
26583;DHT22;14230;45.382;10.998;2023-04-01T02:30:15;8.80;99.90
26583;DHT22;14230;45.382;10.998;2023-04-01T02:32:44;8.80;99.90
26583;DHT22;14230;45.382;10.998;2023-04-01T02:35:15;8.80;99.90
26583;DHT22;14230;45.382;10.998;2023-04-01T02:37:44;8.80;99.90
26583;DHT22;14230;45.382;10.998;2023-04-01T02:40:14;8.70;99.90
26583;DHT22;14230;45.382;10.998;2023-04-01T02:42:42;8.70;99.90
26583;DHT22;14230;45.382;10.998;2023-04-01T02:45:10;8.70;99.90
26583;DHT22;14230;45.382;10.998;2023-04-01T02:47:38;8.60;99.90
26583;DHT22;14230;45.382;10.998;2023-04-01T02:50:07;8.60;99.90
26583;DHT22;14230;45.382;10.998;2023-04-01T02:52:35;8.60;99.90
26583;DHT22;14230;45.382;10.998;2023-04-01T02:55:03;8.60;99.90
26583;DHT22;14230;45.382;10.998;2023-04-01T02:57:32;8.60;99.90
26583;DHT22;14230;45.382;10.998;2023-04-01T02:59:59;8.50;99.90
26583;DHT22;14230;45.382;10.998;2023-04-01T03:02:27;8.50;99.90
26583;DHT22;14230;45.382;10.998;2023-04-01T03:04:54;8.60;99.90
26583;DHT22;14230;45.382;10.998;2023-04-01T03:07:21;8.60;99.90
26583;DHT22;14230;45.382;10.998;2023-04-01T03:09:49;8.60;99.90
26583;DHT22;14230;45.382;10.998;2023-04-01T03:12:17;8.60;99.90
26583;DHT22;14230;45.382;10.998;2023-04-01T03:14:49;8.60;99.90
26583;DHT22;14230;45.382;10.998;2023-04-01T03:17:17;8.60;99.90
26583;DHT22;14230;45.382;10.998;2023-04-01T03:19:45;8.50;99.90
26583;DHT22;14230;45.382;10.998;2023-04-01T03:22:13;8.50;99.90
26583;DHT22;14230;45.382;10.998;2023-04-01T03:24:40;8.50;99.90
26583;DHT22;14230;45.382;10.998;2023-04-01T03:27:08;8.50;99.90
26583;DHT22;14230;45.382;10.998;2023-04-01T03:29:35;8.50;99.90
26583;DHT22;14230;45.382;10.998;2023-04-01T03:32:03;8.50;99.90
26583;DHT22;14230;45.382;10.998;2023-04-01T03:34:31;8.60;99.90
26583;DHT22;14230;45.382;10.998;2023-04-01T03:36:59;8.60;99.90
26583;DHT22;14230;45.382;10.998;2023-04-01T03:39:26;8.50;99.90
26583;DHT22;14230;45.382;10.998;2023-04-01T03:41:54;8.50;99.90
26583;DHT22;14230;45.382;10.998;2023-04-01T03:44:22;8.50;99.90
26583;DHT22;14230;45.382;10.998;2023-04-01T03:46:52;8.50;99.90
26583;DHT22;14230;45.382;10.998;2023-04-01T03:49:20;8.40;99.90
26583;DHT22;14230;45.382;10.998;2023-04-01T03:51:47;8.40;99.90
26583;DHT22;14230;45.382;10.998;2023-04-01T03:54:15;8.40;99.90
26583;DHT22;14230;45.382;10.998;2023-04-01T03:56:43;8.30;99.90
26583;DHT22;14230;45.382;10.998;2023-04-01T03:59:11;8.40;99.90
26583;DHT22;14230;45.382;10.998;2023-04-01T04:01:39;8.30;99.90
26583;DHT22;14230;45.382;10.998;2023-04-01T04:04:06;8.30;99.90
26583;DHT22;14230;45.382;10.998;2023-04-01T04:06:34;8.30;99.90
26583;DHT22;14230;45.382;10.998;2023-04-01T04:09:02;8.30;99.90
26583;DHT22;14230;45.382;10.998;2023-04-01T04:11:31;8.30;99.90
26583;DHT22;14230;45.382;10.998;2023-04-01T04:14:00;8.40;99.90
26583;DHT22;14230;45.382;10.998;2023-04-01T04:16:27;8.40;99.90
26583;DHT22;14230;45.382;10.998;2023-04-01T04:18:59;8.40;99.90
26583;DHT22;14230;45.382;10.998;2023-04-01T04:21:26;8.60;99.90
26583;DHT22;14230;45.382;10.998;2023-04-01T04:23:54;8.60;99.90
26583;DHT22;14230;45.382;10.998;2023-04-01T04:26:22;8.50;99.90
26583;DHT22;14230;45.382;10.998;2023-04-01T04:28:57;8.40;99.90
26583;DHT22;14230;45.382;10.998;2023-04-01T04:31:25;8.30;99.90
26583;DHT22;14230;45.382;10.998;2023-04-01T04:33:55;8.20;99.90
26583;DHT22;14230;45.382;10.998;2023-04-01T04:36:23;8.10;99.90
26583;DHT22;14230;45.382;10.998;2023-04-01T04:38:52;8.00;99.90
26583;DHT22;14230;45.382;10.998;2023-04-01T04:41:19;8.00;99.90
26583;DHT22;14230;45.382;10.998;2023-04-01T04:43:55;8.00;99.90
26583;DHT22;14230;45.382;10.998;2023-04-01T04:46:24;8.10;99.90
26583;DHT22;14230;45.382;10.998;2023-04-01T04:49:03;8.10;99.90
26583;DHT22;14230;45.382;10.998;2023-04-01T04:51:31;8.00;99.90
26583;DHT22;14230;45.382;10.998;2023-04-01T04:54:02;8.00;99.90
26583;DHT22;14230;45.382;10.998;2023-04-01T04:56:44;7.90;99.90
26583;DHT22;14230;45.382;10.998;2023-04-01T04:59:11;7.90;99.90
26583;DHT22;14230;45.382;10.998;2023-04-01T05:01:45;7.80;99.90
26583;DHT22;14230;45.382;10.998;2023-04-01T05:04:13;7.80;99.90
26583;DHT22;14230;45.382;10.998;2023-04-01T05:06:42;7.90;99.90
26583;DHT22;14230;45.382;10.998;2023-04-01T05:09:10;7.90;99.90
26583;DHT22;14230;45.382;10.998;2023-04-01T05:11:37;8.00;99.90
26583;DHT22;14230;45.382;10.998;2023-04-01T05:14:05;8.10;99.90
26583;DHT22;14230;45.382;10.998;2023-04-01T05:16:33;8.10;99.90
26583;DHT22;14230;45.382;10.998;2023-04-01T05:19:01;8.20;99.90
26583;DHT22;14230;45.382;10.998;2023-04-01T05:21:28;8.20;99.90
26583;DHT22;14230;45.382;10.998;2023-04-01T05:23:56;8.10;99.90
26583;DHT22;14230;45.382;10.998;2023-04-01T05:26:25;8.10;99.90
26583;DHT22;14230;45.382;10.998;2023-04-01T05:28:52;8.20;99.90
26583;DHT22;14230;45.382;10.998;2023-04-01T05:31:20;8.30;99.90
26583;DHT22;14230;45.382;10.998;2023-04-01T05:33:49;8.40;99.90
26583;DHT22;14230;45.382;10.998;2023-04-01T05:36:16;8.50;99.90
26583;DHT22;14230;45.382;10.998;2023-04-01T05:38:44;8.50;99.90
26583;DHT22;14230;45.382;10.998;2023-04-01T05:41:16;8.50;99.90
26583;DHT22;14230;45.382;10.998;2023-04-01T05:43:45;8.60;99.90
26583;DHT22;14230;45.382;10.998;2023-04-01T05:46:36;8.60;99.90
26583;DHT22;14230;45.382;10.998;2023-04-01T05:49:14;8.70;99.90
26583;DHT22;14230;45.382;10.998;2023-04-01T05:51:42;8.80;99.90
26583;DHT22;14230;45.382;10.998;2023-04-01T05:54:09;8.90;99.90
26583;DHT22;14230;45.382;10.998;2023-04-01T05:56:38;9.00;99.90
26583;DHT22;14230;45.382;10.998;2023-04-01T05:59:05;9.00;99.90
26583;DHT22;14230;45.382;10.998;2023-04-01T06:01:33;9.10;99.90
26583;DHT22;14230;45.382;10.998;2023-04-01T06:04:00;9.30;99.90
26583;DHT22;14230;45.382;10.998;2023-04-01T06:06:29;9.50;99.90
26583;DHT22;14230;45.382;10.998;2023-04-01T06:09:18;9.50;99.90
26583;DHT22;14230;45.382;10.998;2023-04-01T06:12:28;9.70;99.90
26583;DHT22;14230;45.382;10.998;2023-04-01T06:15:19;9.90;99.90
26583;DHT22;14230;45.382;10.998;2023-04-01T06:19:17;10.10;99.90
26583;DHT22;14230;45.382;10.998;2023-04-01T06:24:23;10.70;99.90
26583;DHT22;14230;45.382;10.998;2023-04-01T06:49:44;18.00;99.90
26583;DHT22;14230;45.382;10.998;2023-04-01T06:55:53;16.80;99.90
26583;DHT22;14230;45.382;10.998;2023-04-01T06:58:38;16.90;99.90
26583;DHT22;14230;45.382;10.998;2023-04-01T07:01:16;17.10;99.90
26583;DHT22;14230;45.382;10.998;2023-04-01T07:03:55;17.70;99.90
26583;DHT22;14230;45.382;10.998;2023-04-01T07:06:30;18.20;99.90
26583;DHT22;14230;45.382;10.998;2023-04-01T07:09:05;18.10;99.90
26583;DHT22;14230;45.382;10.998;2023-04-01T07:11:59;17.90;99.90
26583;DHT22;14230;45.382;10.998;2023-04-01T07:15:09;16.40;99.90
26583;DHT22;14230;45.382;10.998;2023-04-01T07:17:40;16.00;99.90
26583;DHT22;14230;45.382;10.998;2023-04-01T07:23:00;17.60;99.90
26583;DHT22;14230;45.382;10.998;2023-04-01T07:25:47;18.80;99.90
26583;DHT22;14230;45.382;10.998;2023-04-01T07:28:32;20.30;99.90
26583;DHT22;14230;45.382;10.998;2023-04-01T07:34:12;20.80;99.90
26583;DHT22;14230;45.382;10.998;2023-04-01T07:44:44;21.00;99.90
26583;DHT22;14230;45.382;10.998;2023-04-01T07:50:27;19.70;99.90
26583;DHT22;14230;45.382;10.998;2023-04-01T07:59:13;20.80;99.90
26583;DHT22;14230;45.382;10.998;2023-04-01T08:02:28;21.00;99.90
26583;DHT22;14230;45.382;10.998;2023-04-01T08:05:11;21.90;99.90
26583;DHT22;14230;45.382;10.998;2023-04-01T08:14:14;23.00;99.90
26583;DHT22;14230;45.382;10.998;2023-04-01T08:29:00;22.30;99.90
26583;DHT22;14230;45.382;10.998;2023-04-01T08:31:55;22.80;99.90
26583;DHT22;14230;45.382;10.998;2023-04-01T08:34:33;23.20;99.90
26583;DHT22;14230;45.382;10.998;2023-04-01T08:37:08;23.30;99.90
26583;DHT22;14230;45.382;10.998;2023-04-01T08:39:50;23.60;99.90
26583;DHT22;14230;45.382;10.998;2023-04-01T08:42:41;24.10;99.90
26583;DHT22;14230;45.382;10.998;2023-04-01T08:51:16;23.20;99.90
26583;DHT22;14230;45.382;10.998;2023-04-01T08:57:41;23.30;99.90
26583;DHT22;14230;45.382;10.998;2023-04-01T09:13:29;25.00;98.80
26583;DHT22;14230;45.382;10.998;2023-04-01T09:27:02;27.80;93.90
26583;DHT22;14230;45.382;10.998;2023-04-01T09:29:56;27.70;93.10
26583;DHT22;14230;45.382;10.998;2023-04-01T09:44:06;26.60;93.20
26583;DHT22;14230;45.382;10.998;2023-04-01T09:49:55;28.10;91.50
26583;DHT22;14230;45.382;10.998;2023-04-01T10:14:05;28.10;86.60
26583;DHT22;14230;45.382;10.998;2023-04-01T10:34:54;28.40;74.00
26583;DHT22;14230;45.382;10.998;2023-04-01T11:36:29;21.40;72.90
26583;DHT22;14230;45.382;10.998;2023-04-01T11:42:47;21.00;78.30
26583;DHT22;14230;45.382;10.998;2023-04-01T12:03:16;21.20;81.20
26583;DHT22;14230;45.382;10.998;2023-04-01T12:09:01;21.30;81.50
26583;DHT22;14230;45.382;10.998;2023-04-01T12:14:34;21.30;81.70
26583;DHT22;14230;45.382;10.998;2023-04-01T12:22:49;21.10;83.10
26583;DHT22;14230;45.382;10.998;2023-04-01T12:25:28;21.10;80.90
26583;DHT22;14230;45.382;10.998;2023-04-01T12:31:01;21.20;79.10
26583;DHT22;14230;45.382;10.998;2023-04-01T12:33:47;21.00;77.60
26583;DHT22;14230;45.382;10.998;2023-04-01T12:42:16;21.10;73.60
26583;DHT22;14230;45.382;10.998;2023-04-01T12:51:05;21.40;74.40
26583;DHT22;14230;45.382;10.998;2023-04-01T12:53:46;21.30;73.90
26583;DHT22;14230;45.382;10.998;2023-04-01T12:56:30;21.30;71.80
26583;DHT22;14230;45.382;10.998;2023-04-01T13:05:01;21.50;73.10
26583;DHT22;14230;45.382;10.998;2023-04-01T13:10:25;21.70;70.00
26583;DHT22;14230;45.382;10.998;2023-04-01T13:15:40;21.90;70.00
26583;DHT22;14230;45.382;10.998;2023-04-01T13:26:35;21.90;70.20
26583;DHT22;14230;45.382;10.998;2023-04-01T13:32:27;21.90;72.90
26583;DHT22;14230;45.382;10.998;2023-04-01T13:38:17;22.00;70.00
26583;DHT22;14230;45.382;10.998;2023-04-01T13:43:42;21.90;69.60
26583;DHT22;14230;45.382;10.998;2023-04-01T13:49:00;21.90;69.00
26583;DHT22;14230;45.382;10.998;2023-04-01T13:54:27;21.80;68.50
26583;DHT22;14230;45.382;10.998;2023-04-01T13:59:56;21.70;69.50
26583;DHT22;14230;45.382;10.998;2023-04-01T14:05:32;21.70;65.40
26583;DHT22;14230;45.382;10.998;2023-04-01T14:08:20;21.80;65.90
26583;DHT22;14230;45.382;10.998;2023-04-01T14:22:36;21.80;65.50
26583;DHT22;14230;45.382;10.998;2023-04-01T14:25:36;21.90;64.90
26583;DHT22;14230;45.382;10.998;2023-04-01T14:39:55;21.50;67.00
26583;DHT22;14230;45.382;10.998;2023-04-01T14:48:03;21.90;61.10
26583;DHT22;14230;45.382;10.998;2023-04-01T14:50:46;22.00;61.20
26583;DHT22;14230;45.382;10.998;2023-04-01T14:53:27;22.00;59.60
26583;DHT22;14230;45.382;10.998;2023-04-01T14:55:57;22.10;58.20
26583;DHT22;14230;45.382;10.998;2023-04-01T14:58:51;22.10;58.40
26583;DHT22;14230;45.382;10.998;2023-04-01T15:01:43;22.20;58.30
26583;DHT22;14230;45.382;10.998;2023-04-01T15:18:44;22.40;66.10
26583;DHT22;14230;45.382;10.998;2023-04-01T15:21:44;22.30;65.30
26583;DHT22;14230;45.382;10.998;2023-04-01T15:30:15;21.60;65.30
26583;DHT22;14230;45.382;10.998;2023-04-01T15:57:03;21.00;71.60
26583;DHT22;14230;45.382;10.998;2023-04-01T16:02:47;20.90;67.90
26583;DHT22;14230;45.382;10.998;2023-04-01T16:16:47;21.00;65.80
26583;DHT22;14230;45.382;10.998;2023-04-01T16:19:32;21.00;63.80
26583;DHT22;14230;45.382;10.998;2023-04-01T16:22:29;20.80;63.90
26583;DHT22;14230;45.382;10.998;2023-04-01T16:28:20;20.60;63.40
26583;DHT22;14230;45.382;10.998;2023-04-01T16:44:55;20.10;65.50
26583;DHT22;14230;45.382;10.998;2023-04-01T16:47:34;20.00;66.20
26583;DHT22;14230;45.382;10.998;2023-04-01T16:50:25;19.90;67.00
26583;DHT22;14230;45.382;10.998;2023-04-01T16:55:57;19.70;67.00
26583;DHT22;14230;45.382;10.998;2023-04-01T16:58:42;19.70;67.00
26583;DHT22;14230;45.382;10.998;2023-04-01T17:01:31;19.60;67.60
26583;DHT22;14230;45.382;10.998;2023-04-01T17:04:34;19.50;68.00
26583;DHT22;14230;45.382;10.998;2023-04-01T17:07:21;19.40;67.70
26583;DHT22;14230;45.382;10.998;2023-04-01T17:09:59;19.40;66.80
26583;DHT22;14230;45.382;10.998;2023-04-01T17:18:19;19.20;70.10
26583;DHT22;14230;45.382;10.998;2023-04-01T17:20:58;19.30;71.60
26583;DHT22;14230;45.382;10.998;2023-04-01T17:26:32;18.90;73.70
26583;DHT22;14230;45.382;10.998;2023-04-01T17:29:15;18.80;74.80
26583;DHT22;14230;45.382;10.998;2023-04-01T17:45:30;18.00;82.80
26583;DHT22;14230;45.382;10.998;2023-04-01T17:51:14;17.70;85.00
26583;DHT22;14230;45.382;10.998;2023-04-01T17:53:53;17.60;85.90
26583;DHT22;14230;45.382;10.998;2023-04-01T17:56:52;17.50;87.00
26583;DHT22;14230;45.382;10.998;2023-04-01T17:59:39;17.40;87.60
26583;DHT22;14230;45.382;10.998;2023-04-01T18:21:29;16.60;90.90
26583;DHT22;14230;45.382;10.998;2023-04-01T18:24:16;16.40;91.60
26583;DHT22;14230;45.382;10.998;2023-04-01T18:26:59;16.30;91.90
26583;DHT22;14230;45.382;10.998;2023-04-01T18:32:12;16.20;91.90
26583;DHT22;14230;45.382;10.998;2023-04-01T18:43:34;16.10;92.10
26583;DHT22;14230;45.382;10.998;2023-04-01T18:49:20;16.10;92.00
26583;DHT22;14230;45.382;10.998;2023-04-01T18:51:59;16.00;92.20
26583;DHT22;14230;45.382;10.998;2023-04-01T18:54:39;16.00;92.50
26583;DHT22;14230;45.382;10.998;2023-04-01T18:57:19;15.90;92.70
26583;DHT22;14230;45.382;10.998;2023-04-01T19:00:22;15.90;93.40
26583;DHT22;14230;45.382;10.998;2023-04-01T19:03:34;15.80;93.80
26583;DHT22;14230;45.382;10.998;2023-04-01T19:05:56;15.70;94.30
26583;DHT22;14230;45.382;10.998;2023-04-01T19:08:31;15.60;94.80
26583;DHT22;14230;45.382;10.998;2023-04-01T19:11:13;15.50;95.10
26583;DHT22;14230;45.382;10.998;2023-04-01T19:17:00;15.50;95.50
26583;DHT22;14230;45.382;10.998;2023-04-01T19:19:40;15.50;96.00
26583;DHT22;14230;45.382;10.998;2023-04-01T19:25:39;15.30;96.80
26583;DHT22;14230;45.382;10.998;2023-04-01T19:28:32;15.30;97.20
26583;DHT22;14230;45.382;10.998;2023-04-01T19:31:58;15.20;98.00
26583;DHT22;14230;45.382;10.998;2023-04-01T19:35:04;15.10;98.10
26583;DHT22;14230;45.382;10.998;2023-04-01T19:37:51;15.00;97.90
26583;DHT22;14230;45.382;10.998;2023-04-01T19:40:41;14.90;98.00
26583;DHT22;14230;45.382;10.998;2023-04-01T19:43:27;15.00;98.20
26583;DHT22;14230;45.382;10.998;2023-04-01T19:52:01;14.90;99.90
26583;DHT22;14230;45.382;10.998;2023-04-01T19:54:53;14.90;99.90
26583;DHT22;14230;45.382;10.998;2023-04-01T19:57:40;14.80;99.90
26583;DHT22;14230;45.382;10.998;2023-04-01T20:16:14;14.40;99.90
26583;DHT22;14230;45.382;10.998;2023-04-01T20:18:59;14.40;99.90
26583;DHT22;14230;45.382;10.998;2023-04-01T20:21:35;14.40;99.90
26583;DHT22;14230;45.382;10.998;2023-04-01T20:27:14;14.40;99.90
26583;DHT22;14230;45.382;10.998;2023-04-01T20:40:51;14.30;99.90
26583;DHT22;14230;45.382;10.998;2023-04-01T20:43:58;14.30;99.90
26583;DHT22;14230;45.382;10.998;2023-04-01T20:49:41;14.30;99.90
26583;DHT22;14230;45.382;10.998;2023-04-01T20:52:41;14.30;99.90
26583;DHT22;14230;45.382;10.998;2023-04-01T21:06:48;14.30;99.90
26583;DHT22;14230;45.382;10.998;2023-04-01T21:15:15;14.30;99.90
26583;DHT22;14230;45.382;10.998;2023-04-01T21:20:58;14.10;99.90
26583;DHT22;14230;45.382;10.998;2023-04-01T21:26:57;14.00;99.90
26583;DHT22;14230;45.382;10.998;2023-04-01T21:29:46;13.80;99.90
26583;DHT22;14230;45.382;10.998;2023-04-01T21:32:38;13.60;99.90
26583;DHT22;14230;45.382;10.998;2023-04-01T21:53:04;13.20;99.90
26583;DHT22;14230;45.382;10.998;2023-04-01T22:06:48;13.20;99.90
26583;DHT22;14230;45.382;10.998;2023-04-01T22:09:34;13.20;99.90
26583;DHT22;14230;45.382;10.998;2023-04-01T22:20:43;13.60;99.90
26583;DHT22;14230;45.382;10.998;2023-04-01T22:29:23;13.60;99.90
26583;DHT22;14230;45.382;10.998;2023-04-01T22:32:14;13.60;99.90
26583;DHT22;14230;45.382;10.998;2023-04-01T22:37:37;13.10;99.90
26583;DHT22;14230;45.382;10.998;2023-04-01T22:46:21;12.90;99.90
26583;DHT22;14230;45.382;10.998;2023-04-01T22:48:54;12.80;99.90
26583;DHT22;14230;45.382;10.998;2023-04-01T22:52:50;12.70;99.90
26583;DHT22;14230;45.382;10.998;2023-04-01T22:55:00;12.60;99.90
26583;DHT22;14230;45.382;10.998;2023-04-01T22:57:43;12.50;99.90
26583;DHT22;14230;45.382;10.998;2023-04-01T23:00:26;12.40;99.90
26583;DHT22;14230;45.382;10.998;2023-04-01T23:05:28;12.30;99.90
26583;DHT22;14230;45.382;10.998;2023-04-01T23:11:02;12.30;99.90
26583;DHT22;14230;45.382;10.998;2023-04-01T23:13:39;12.20;99.90
26583;DHT22;14230;45.382;10.998;2023-04-01T23:16:11;12.20;99.90
26583;DHT22;14230;45.382;10.998;2023-04-01T23:18:59;12.20;99.90
26583;DHT22;14230;45.382;10.998;2023-04-01T23:21:44;12.30;99.90
26583;DHT22;14230;45.382;10.998;2023-04-01T23:24:33;12.30;99.90
26583;DHT22;14230;45.382;10.998;2023-04-01T23:29:53;12.40;99.90
26583;DHT22;14230;45.382;10.998;2023-04-01T23:32:24;12.40;99.90
26583;DHT22;14230;45.382;10.998;2023-04-01T23:34:59;12.40;99.90
26583;DHT22;14230;45.382;10.998;2023-04-01T23:37:28;12.40;99.90
26583;DHT22;14230;45.382;10.998;2023-04-01T23:39:57;12.40;99.90
26583;DHT22;14230;45.382;10.998;2023-04-01T23:42:39;12.40;99.90
26583;DHT22;14230;45.382;10.998;2023-04-01T23:45:16;12.30;99.90
26583;DHT22;14230;45.382;10.998;2023-04-01T23:47:48;12.30;99.90
26583;DHT22;14230;45.382;10.998;2023-04-01T23:50:24;12.30;99.90
26583;DHT22;14230;45.382;10.998;2023-04-01T23:53:04;12.20;99.90
26583;DHT22;14230;45.382;10.998;2023-04-01T23:55:41;12.20;99.90
26583;DHT22;14230;45.382;10.998;2023-04-01T23:58:25;12.10;99.90
